Aérodrome :
LOGIN :

S'inscrire | Disclaimer

   EN    FR    IT 

 










Légende :    VFR   VFR Marginal   IFR   IFR Intensif   IFR Très Intensif
Visi : 
Plafond : 
>= 8 km
>= 3000ft
5 à 8 km
1000 à 3000 ft
1500m à 5 km
500 à 1000 ft
800 à 1500m
200 à 500 ft
< 800m
< 200 ft
Symboles :   Orages  Brouillard  Fortes neiges  Fortes précipitations  Vent > 20 kt
SIGMETs :   Divers  Orages  Givrage  Turbulence  Onde Orograph.  Cendres Volcan.






- Altitude de l'aérodrome : 1 ft


EGCK - Caernarfon

DERNIER METAR :
  • 091720Z AUTO VRB02KT 9999 NCD 05/01 Q1022

METARs EXPIRÉS :
  • 091650Z 31008KT 9999 FEW036 08/03 Q1021
  • 091620Z 31012KT 9999 FEW031 08/03 Q1021
  • 091550Z 31012KT 9999 FEW031 08/03 Q1021
  • 091520Z 32010KT 9999 FEW030 09/03 Q1020
  • 091450Z 33011KT 9999 SCT030 09/02 Q1020

TAF TAF EGCK
Valide du 09 à 18h jusqu'au 10 à 03h UTC


091702Z 0918/1003 30008KT 9999 FEW030
BECMG 0919/0922 18014KT
BECMG 1001/1003 18018G30KT



MET'MAP, la Météo Aéronautique d'un coup d'oeil ! - Copyright ORBIFLY Décembre 2007 - Disclaimer

ORBIFLY MET'MAP TEAM :

Programmation & Développement : Alexandra Zaïnal
Sur une idée originale de : Baudouin d'Aumeries
Assistance à la programmation : Marc-Olivier Méhu
Soutien technique & logistique : Manuel Goepfert

Contact : metmap@orbifly.com




SOURCES & CREDITS :

   NOAA